This is the latest recevied weather packets stored in our database for station/object DH5DY-6. If no packets are shown the sender has not sent any weather packets the latest 10 day(s).
| Time | Temp. | Humidity | Pressure | Rain* | Wind** | Luminosity | Snow |
|---|---|---|---|---|---|---|---|
| 1787816539 | 19.44° C | 84% | 1011.5 hPa | 0 mm | - | 236 W/m² | - |
| 1787815339 | 18.33° C | 88% | 1011.9 hPa | 0 mm | - | 132 W/m² | - |
| 1787814738 | 17.22° C | 92% | 1011.8 hPa | 0 mm | - | 125 W/m² | - |
| 1787813541 | 16.67° C | 94% | 1011.5 hPa | 0 mm | - | 69 W/m² | - |
| 1787812938 | 16.11° C | 94% | 1011.7 hPa | 0 mm | - | 60 W/m² | - |
| 1787811738 | 15.56° C | 95% | 1011.8 hPa | 0 mm | - | 63 W/m² | - |
| 1787811138 | 15.56° C | 95% | 1011.8 hPa | 0 mm | - | 54 W/m² | - |
| 1787809938 | 15° C | 95% | 1011.6 hPa | 0 mm | - | 47 W/m² | - |
| 1787809339 | 14.44° C | 95% | 1011.4 hPa | 0 mm | - | 44 W/m² | - |
| 1787808737 | 14.44° C | 94% | 1011.4 hPa | 0 mm | - | 44 W/m² | - |
| 1787808138 | 14.44° C | 95% | 1011.8 hPa | 0 mm | - | 40 W/m² | - |
| 1787806340 | 13.33° C | 93% | 1011.7 hPa | 0 mm | - | 14 W/m² | - |
| 1787805738 | 13.33° C | 93% | 1011.8 hPa | 0 mm | - | 7 W/m² | - |
| 1787804538 | 13.89° C | 94% | 1011.9 hPa | 0 mm | - | 0 W/m² | - |
| 1787803938 | 13.89° C | 94% | 1012 hPa | 0 mm | - | 0 W/m² | - |
| 1787802738 | 13.89° C | 94% | 1011.9 hPa | 0 mm | - | 0 W/m² | - |
| 1787802138 | 13.33° C | 93% | 1011.9 hPa | 0 mm | - | 0 W/m² | - |
| 1787800939 | 13.89° C | 93% | 1011.9 hPa | 0 mm | - | 0 W/m² | - |
| 1787800337 | 13.89° C | 93% | 1011.9 hPa | 0 mm | - | 0 W/m² | - |
| 1787799736 | 13.89° C | 93% | 1011.9 hPa | 0 mm | - | 0 W/m² | - |
| 1787799137 | 13.89° C | 93% | 1012.1 hPa | 0 mm | - | 0 W/m² | - |
| 1787798537 | 13.89° C | 93% | 1012.2 hPa | 0 mm | - | 0 W/m² | - |
| 1787797337 | 13.89° C | 93% | 1012.6 hPa | 0 mm | - | 0 W/m² | - |
| 1787796737 | 13.89° C | 93% | 1012.8 hPa | 0 mm | - | 0 W/m² | - |
| 1787796137 | 14.44° C | 93% | 1012.9 hPa | 0 mm | - | 0 W/m² | - |
* Rain latest hour (hover to see other rain measurements)
** Current wind speed in m/s (hover to see current wind gust speed)